TimeCDT,TemperatureF,Dew PointF,Humidity,Sea Level PressureIn,VisibilityMPH,Wind Direction,Wind SpeedMPH,Gust SpeedMPH,PrecipitationIn,Events,Conditions,WindDirDegrees,DateUTC
12:53 AM,70.0,68.0,93,30.17,7.0,SE,4.6,-,N/A,,Clear,140,2013-08-25 05:53:00
1:53 AM,70.0,68.0,93,30.16,6.0,SE,5.8,-,N/A,,Clear,130,2013-08-25 06:53:00
2:53 AM,69.1,68.0,96,30.17,6.0,South,3.5,-,N/A,,Clear,180,2013-08-25 07:53:00
3:53 AM,70.0,68.0,93,30.16,5.0,ESE,4.6,-,N/A,,Clear,120,2013-08-25 08:53:00
4:53 AM,69.1,66.9,93,30.18,4.0,ESE,4.6,-,N/A,,Clear,110,2013-08-25 09:53:00
5:43 AM,68.0,66.2,94,30.24,2.0,SE,3.5,-,N/A,,Clear,130,2013-08-25 10:43:00
5:53 AM,69.1,66.9,93,30.20,3.0,ESE,3.5,-,N/A,,Clear,120,2013-08-25 10:53:00
6:29 AM,68.0,66.2,94,30.25,2.5,Calm,Calm,-,N/A,,Clear,0,2013-08-25 11:29:00
6:43 AM,68.0,66.2,94,30.25,1.0,Calm,Calm,-,N/A,,Clear,0,2013-08-25 11:43:00
6:53 AM,68.0,66.9,96,30.22,1.0,Calm,Calm,-,N/A,,Clear,0,2013-08-25 11:53:00
7:48 AM,69.8,69.8,100,30.27,1.8,Calm,Calm,-,N/A,,Scattered Clouds,0,2013-08-25 12:48:00
7:53 AM,71.1,70.0,96,30.23,1.8,Calm,Calm,-,N/A,,Scattered Clouds,0,2013-08-25 12:53:00
8:03 AM,71.6,69.8,94,30.27,2.0,Calm,Calm,-,N/A,,Partly Cloudy,0,2013-08-25 13:03:00
8:24 AM,71.6,69.8,94,30.27,3.0,SE,4.6,-,N/A,,Clear,130,2013-08-25 13:24:00
8:53 AM,73.0,70.0,90,30.23,4.0,ESE,5.8,-,N/A,,Clear,120,2013-08-25 13:53:00
9:53 AM,78.1,70.0,76,30.22,6.0,Calm,Calm,-,N/A,,Haze,0,2013-08-25 14:53:00
10:53 AM,81.0,71.1,72,30.22,8.0,SE,4.6,-,N/A,,Clear,130,2013-08-25 15:53:00
11:53 AM,84.0,72.0,67,30.22,10.0,SE,6.9,-,N/A,,Clear,140,2013-08-25 16:53:00
12:53 PM,86.0,72.0,63,30.20,10.0,ESE,5.8,-,N/A,,Clear,110,2013-08-25 17:53:00
1:53 PM,88.0,71.1,57,30.19,10.0,ENE,5.8,-,N/A,,Scattered Clouds,60,2013-08-25 18:53:00
2:53 PM,89.1,70.0,53,30.18,10.0,ESE,8.1,-,N/A,,Scattered Clouds,110,2013-08-25 19:53:00
3:53 PM,89.1,66.9,48,30.16,10.0,Variable,4.6,-,N/A,,Clear,0,2013-08-25 20:53:00
4:53 PM,89.1,66.9,48,30.15,10.0,ESE,6.9,-,N/A,,Clear,110,2013-08-25 21:53:00
5:53 PM,87.1,69.1,55,30.15,10.0,SE,8.1,-,N/A,,Partly Cloudy,130,2013-08-25 22:53:00
6:53 PM,84.9,69.1,59,30.15,10.0,SE,5.8,-,N/A,,Clear,140,2013-08-25 23:53:00
7:53 PM,80.1,71.1,74,30.16,10.0,SSE,4.6,-,N/A,,Partly Cloudy,160,2013-08-26 00:53:00
8:53 PM,77.0,70.0,79,30.17,10.0,SSE,4.6,-,N/A,,Clear,150,2013-08-26 01:53:00
9:53 PM,77.0,70.0,79,30.19,10.0,Calm,Calm,-,N/A,,Clear,0,2013-08-26 02:53:00
10:53 PM,75.9,70.0,82,30.21,10.0,Calm,Calm,-,N/A,,Clear,0,2013-08-26 03:53:00
11:53 PM,73.0,70.0,90,30.21,10.0,SSE,4.6,-,N/A,,Clear,150,2013-08-26 04:53:00